Williston, North Dakota
Current Conditions -  °F | °C
As of 6:52 PM on Friday 24 Oct 2014 (Local Time) from KISN Reporting Station
Clear Clear  
Wind Chill: 11°   Ceiling: Unl
Heat Index: 11°   Visibility: 10mi
Dew Point: -3°   Wind: 6mph
Humidity: 38%   Direction: 250°WSW
Pressure: 29.98"   Gusts: NA
Location:  48.15°N, 103.62°W
Report Text: KISN 242352Z AUTO 25005KT 10SM CLR 11/M03 A2998 RMK AO2 SLP163 T01111028 10172 20111 53018
Loading
Personal Weather Stations






























Interactive Weather Map
Tropical Storm Tracking
New forecast layout! Learn more

10-Day Weather Forecast

Advertisements
Track Severe Weather on mobile